Niwot, Colorado
Current Conditions -  °F | °C
As of 7:15 AM on Sunday 21 Dec 2014 (Local Time) from KLMO Reporting Station
Clear Clear  
Wind Chill: 23°   Ceiling: Unl
Heat Index: 30°   Visibility: 10mi
Dew Point: 22°   Wind: 7mph
Humidity: 72%   Direction: 90°E
Pressure: 29.73"   Gusts: NA
Location:  40.1°N, 105.17°W
Report Text: KLMO 211415Z AUTO 09006KT 10SM CLR M01/M06 A2973 RMK AO2 T10111056
Loading
Personal Weather Stations






























Interactive Weather Map New forecast layout! Learn more

10-Day Weather Forecast

Advertisements
Track Severe Weather on mobile